sensor_id;sensor_type;location;lat;lon;timestamp;P1;durP1;ratioP1;P2;durP2;ratioP2
42018;SDS011;27703;51.980;5.848;2023-11-22T00:00:12;10.38;;;7.05;;
42018;SDS011;27703;51.980;5.848;2023-11-22T00:02:39;8.63;;;6.55;;
42018;SDS011;27703;51.980;5.848;2023-11-22T00:05:05;10.65;;;7.70;;
42018;SDS011;27703;51.980;5.848;2023-11-22T00:07:32;14.50;;;6.57;;
42018;SDS011;27703;51.980;5.848;2023-11-22T00:09:57;11.32;;;6.95;;
42018;SDS011;27703;51.980;5.848;2023-11-22T00:12:23;8.95;;;6.97;;
42018;SDS011;27703;51.980;5.848;2023-11-22T00:14:49;9.18;;;6.93;;
42018;SDS011;27703;51.980;5.848;2023-11-22T00:17:16;8.57;;;6.10;;
42018;SDS011;27703;51.980;5.848;2023-11-22T00:19:42;7.70;;;6.25;;
42018;SDS011;27703;51.980;5.848;2023-11-22T00:22:09;10.20;;;6.72;;
42018;SDS011;27703;51.980;5.848;2023-11-22T00:24:41;11.30;;;6.63;;
42018;SDS011;27703;51.980;5.848;2023-11-22T00:27:07;9.05;;;6.15;;
42018;SDS011;27703;51.980;5.848;2023-11-22T00:29:33;7.95;;;6.10;;
42018;SDS011;27703;51.980;5.848;2023-11-22T00:31:59;7.55;;;5.95;;
42018;SDS011;27703;51.980;5.848;2023-11-22T00:34:25;9.48;;;6.05;;
42018;SDS011;27703;51.980;5.848;2023-11-22T00:36:51;9.10;;;7.07;;
42018;SDS011;27703;51.980;5.848;2023-11-22T00:39:17;11.38;;;6.70;;
42018;SDS011;27703;51.980;5.848;2023-11-22T00:41:43;10.43;;;6.78;;
42018;SDS011;27703;51.980;5.848;2023-11-22T00:44:11;9.52;;;6.70;;
42018;SDS011;27703;51.980;5.848;2023-11-22T00:46:37;9.27;;;6.70;;
42018;SDS011;27703;51.980;5.848;2023-11-22T00:49:03;7.57;;;5.70;;
42018;SDS011;27703;51.980;5.848;2023-11-22T00:51:33;9.30;;;6.78;;
42018;SDS011;27703;51.980;5.848;2023-11-22T00:53:59;7.93;;;6.78;;
42018;SDS011;27703;51.980;5.848;2023-11-22T00:56:24;11.55;;;7.55;;
42018;SDS011;27703;51.980;5.848;2023-11-22T00:58:50;11.60;;;6.72;;
42018;SDS011;27703;51.980;5.848;2023-11-22T01:01:18;9.23;;;6.78;;
42018;SDS011;27703;51.980;5.848;2023-11-22T01:03:46;11.73;;;7.25;;
42018;SDS011;27703;51.980;5.848;2023-11-22T01:06:12;8.88;;;6.88;;
42018;SDS011;27703;51.980;5.848;2023-11-22T01:08:38;16.38;;;7.10;;
42018;SDS011;27703;51.980;5.848;2023-11-22T01:11:04;9.30;;;7.05;;
42018;SDS011;27703;51.980;5.848;2023-11-22T01:13:31;11.95;;;7.65;;
42018;SDS011;27703;51.980;5.848;2023-11-22T01:15:57;10.68;;;8.57;;
42018;SDS011;27703;51.980;5.848;2023-11-22T01:18:23;12.45;;;7.00;;
42018;SDS011;27703;51.980;5.848;2023-11-22T01:20:49;11.10;;;7.13;;
42018;SDS011;27703;51.980;5.848;2023-11-22T01:23:15;9.88;;;6.18;;
42018;SDS011;27703;51.980;5.848;2023-11-22T01:25:40;10.68;;;7.47;;
42018;SDS011;27703;51.980;5.848;2023-11-22T01:28:06;9.93;;;6.90;;
42018;SDS011;27703;51.980;5.848;2023-11-22T01:30:31;11.40;;;6.68;;
42018;SDS011;27703;51.980;5.848;2023-11-22T01:32:58;9.82;;;7.63;;
42018;SDS011;27703;51.980;5.848;2023-11-22T01:35:23;10.45;;;7.03;;
42018;SDS011;27703;51.980;5.848;2023-11-22T01:37:49;11.50;;;7.88;;
42018;SDS011;27703;51.980;5.848;2023-11-22T01:40:15;8.57;;;6.35;;
42018;SDS011;27703;51.980;5.848;2023-11-22T01:42:40;9.95;;;7.20;;
42018;SDS011;27703;51.980;5.848;2023-11-22T01:45:06;9.52;;;7.15;;
42018;SDS011;27703;51.980;5.848;2023-11-22T01:47:34;8.63;;;6.03;;
42018;SDS011;27703;51.980;5.848;2023-11-22T01:50:00;10.25;;;6.13;;
42018;SDS011;27703;51.980;5.848;2023-11-22T01:52:25;9.85;;;5.78;;
42018;SDS011;27703;51.980;5.848;2023-11-22T01:54:51;8.75;;;5.20;;
42018;SDS011;27703;51.980;5.848;2023-11-22T01:57:17;7.32;;;5.50;;
42018;SDS011;27703;51.980;5.848;2023-11-22T01:59:44;7.55;;;4.93;;
42018;SDS011;27703;51.980;5.848;2023-11-22T02:02:12;7.28;;;5.85;;
42018;SDS011;27703;51.980;5.848;2023-11-22T02:04:38;8.90;;;6.00;;
42018;SDS011;27703;51.980;5.848;2023-11-22T02:07:04;11.45;;;6.25;;
42018;SDS011;27703;51.980;5.848;2023-11-22T02:09:30;8.52;;;5.65;;
42018;SDS011;27703;51.980;5.848;2023-11-22T02:11:55;10.30;;;7.50;;
42018;SDS011;27703;51.980;5.848;2023-11-22T02:14:22;9.63;;;6.43;;
42018;SDS011;27703;51.980;5.848;2023-11-22T02:16:48;10.27;;;6.85;;
42018;SDS011;27703;51.980;5.848;2023-11-22T02:19:15;10.27;;;6.43;;
42018;SDS011;27703;51.980;5.848;2023-11-22T02:21:42;8.95;;;5.50;;
42018;SDS011;27703;51.980;5.848;2023-11-22T02:24:09;9.15;;;7.15;;
42018;SDS011;27703;51.980;5.848;2023-11-22T02:26:34;9.80;;;6.85;;
42018;SDS011;27703;51.980;5.848;2023-11-22T02:29:01;11.65;;;7.50;;
42018;SDS011;27703;51.980;5.848;2023-11-22T02:31:29;9.23;;;6.90;;
42018;SDS011;27703;51.980;5.848;2023-11-22T02:33:54;9.30;;;6.43;;
42018;SDS011;27703;51.980;5.848;2023-11-22T02:36:20;10.45;;;6.75;;
42018;SDS011;27703;51.980;5.848;2023-11-22T02:38:47;10.27;;;6.95;;
42018;SDS011;27703;51.980;5.848;2023-11-22T02:41:12;11.35;;;7.70;;
42018;SDS011;27703;51.980;5.848;2023-11-22T02:43:38;8.55;;;6.53;;
42018;SDS011;27703;51.980;5.848;2023-11-22T02:46:04;9.48;;;7.25;;
42018;SDS011;27703;51.980;5.848;2023-11-22T02:48:30;11.10;;;7.13;;
42018;SDS011;27703;51.980;5.848;2023-11-22T02:50:55;8.88;;;5.85;;
42018;SDS011;27703;51.980;5.848;2023-11-22T02:53:21;10.82;;;6.90;;
42018;SDS011;27703;51.980;5.848;2023-11-22T02:55:47;8.35;;;5.50;;
42018;SDS011;27703;51.980;5.848;2023-11-22T02:58:12;10.45;;;7.50;;
42018;SDS011;27703;51.980;5.848;2023-11-22T03:00:41;9.10;;;5.65;;
42018;SDS011;27703;51.980;5.848;2023-11-22T03:03:07;8.98;;;5.80;;
42018;SDS011;27703;51.980;5.848;2023-11-22T03:05:35;11.90;;;6.88;;
42018;SDS011;27703;51.980;5.848;2023-11-22T03:08:05;9.82;;;6.90;;
42018;SDS011;27703;51.980;5.848;2023-11-22T03:10:32;12.10;;;7.30;;
42018;SDS011;27703;51.980;5.848;2023-11-22T03:12:58;11.73;;;7.43;;
42018;SDS011;27703;51.980;5.848;2023-11-22T03:15:23;10.68;;;6.78;;
42018;SDS011;27703;51.980;5.848;2023-11-22T03:17:49;10.38;;;7.15;;
42018;SDS011;27703;51.980;5.848;2023-11-22T03:20:14;11.18;;;6.40;;
42018;SDS011;27703;51.980;5.848;2023-11-22T03:22:41;9.75;;;6.20;;
42018;SDS011;27703;51.980;5.848;2023-11-22T03:25:09;9.75;;;7.07;;
42018;SDS011;27703;51.980;5.848;2023-11-22T03:27:35;11.13;;;6.32;;
42018;SDS011;27703;51.980;5.848;2023-11-22T03:30:01;10.05;;;6.32;;
42018;SDS011;27703;51.980;5.848;2023-11-22T03:32:27;10.32;;;6.22;;
42018;SDS011;27703;51.980;5.848;2023-11-22T03:34:54;10.02;;;6.55;;
42018;SDS011;27703;51.980;5.848;2023-11-22T03:37:20;9.18;;;6.28;;
42018;SDS011;27703;51.980;5.848;2023-11-22T03:39:45;11.90;;;6.78;;
42018;SDS011;27703;51.980;5.848;2023-11-22T03:42:14;9.27;;;6.57;;
42018;SDS011;27703;51.980;5.848;2023-11-22T03:44:41;12.27;;;6.68;;
42018;SDS011;27703;51.980;5.848;2023-11-22T03:47:07;8.90;;;5.10;;
42018;SDS011;27703;51.980;5.848;2023-11-22T03:49:32;9.82;;;5.47;;
42018;SDS011;27703;51.980;5.848;2023-11-22T03:51:58;9.02;;;5.68;;
42018;SDS011;27703;51.980;5.848;2023-11-22T03:54:23;10.32;;;6.90;;
42018;SDS011;27703;51.980;5.848;2023-11-22T03:56:49;10.10;;;6.88;;
42018;SDS011;27703;51.980;5.848;2023-11-22T03:59:15;8.65;;;5.70;;
42018;SDS011;27703;51.980;5.848;2023-11-22T04:01:41;10.60;;;6.78;;
42018;SDS011;27703;51.980;5.848;2023-11-22T04:04:06;10.52;;;6.13;;
42018;SDS011;27703;51.980;5.848;2023-11-22T04:06:34;10.02;;;6.35;;
42018;SDS011;27703;51.980;5.848;2023-11-22T04:09:00;11.25;;;6.40;;
42018;SDS011;27703;51.980;5.848;2023-11-22T04:11:27;10.27;;;5.43;;
42018;SDS011;27703;51.980;5.848;2023-11-22T04:13:54;11.20;;;6.07;;
42018;SDS011;27703;51.980;5.848;2023-11-22T04:16:20;8.45;;;6.05;;
42018;SDS011;27703;51.980;5.848;2023-11-22T04:18:45;9.43;;;6.38;;
42018;SDS011;27703;51.980;5.848;2023-11-22T04:21:11;9.02;;;5.63;;
42018;SDS011;27703;51.980;5.848;2023-11-22T04:23:36;9.13;;;6.18;;
42018;SDS011;27703;51.980;5.848;2023-11-22T04:26:02;10.00;;;5.20;;
42018;SDS011;27703;51.980;5.848;2023-11-22T04:28:28;11.43;;;5.85;;
42018;SDS011;27703;51.980;5.848;2023-11-22T04:30:57;10.15;;;6.40;;
42018;SDS011;27703;51.980;5.848;2023-11-22T04:33:23;9.38;;;6.35;;
42018;SDS011;27703;51.980;5.848;2023-11-22T04:35:49;12.13;;;6.93;;
42018;SDS011;27703;51.980;5.848;2023-11-22T04:38:16;9.70;;;6.43;;
42018;SDS011;27703;51.980;5.848;2023-11-22T04:40:42;16.77;;;7.18;;
42018;SDS011;27703;51.980;5.848;2023-11-22T04:43:08;10.88;;;6.82;;
42018;SDS011;27703;51.980;5.848;2023-11-22T04:45:36;11.98;;;7.47;;
42018;SDS011;27703;51.980;5.848;2023-11-22T04:48:03;10.95;;;7.00;;
42018;SDS011;27703;51.980;5.848;2023-11-22T04:50:29;11.40;;;6.80;;
42018;SDS011;27703;51.980;5.848;2023-11-22T04:52:55;10.82;;;6.97;;
42018;SDS011;27703;51.980;5.848;2023-11-22T04:55:20;13.88;;;8.45;;
42018;SDS011;27703;51.980;5.848;2023-11-22T04:57:48;11.02;;;6.70;;
42018;SDS011;27703;51.980;5.848;2023-11-22T05:00:14;11.65;;;7.53;;
42018;SDS011;27703;51.980;5.848;2023-11-22T05:02:40;10.55;;;6.35;;
42018;SDS011;27703;51.980;5.848;2023-11-22T05:05:06;13.00;;;6.38;;
42018;SDS011;27703;51.980;5.848;2023-11-22T05:07:35;9.95;;;6.00;;
42018;SDS011;27703;51.980;5.848;2023-11-22T05:10:00;11.20;;;7.43;;
42018;SDS011;27703;51.980;5.848;2023-11-22T05:12:28;10.93;;;6.55;;
42018;SDS011;27703;51.980;5.848;2023-11-22T05:14:54;10.35;;;6.07;;
42018;SDS011;27703;51.980;5.848;2023-11-22T05:17:20;11.88;;;7.20;;
42018;SDS011;27703;51.980;5.848;2023-11-22T05:19:45;9.75;;;6.10;;
42018;SDS011;27703;51.980;5.848;2023-11-22T05:22:11;9.88;;;6.40;;
42018;SDS011;27703;51.980;5.848;2023-11-22T05:24:36;10.23;;;6.75;;
42018;SDS011;27703;51.980;5.848;2023-11-22T05:27:05;10.65;;;5.97;;
42018;SDS011;27703;51.980;5.848;2023-11-22T05:29:32;10.80;;;6.40;;
42018;SDS011;27703;51.980;5.848;2023-11-22T05:31:59;10.65;;;6.22;;
42018;SDS011;27703;51.980;5.848;2023-11-22T05:34:24;10.50;;;6.53;;
42018;SDS011;27703;51.980;5.848;2023-11-22T05:36:50;10.77;;;6.63;;
42018;SDS011;27703;51.980;5.848;2023-11-22T05:39:15;13.23;;;7.95;;
42018;SDS011;27703;51.980;5.848;2023-11-22T05:41:42;12.70;;;6.60;;
42018;SDS011;27703;51.980;5.848;2023-11-22T05:44:08;12.13;;;6.85;;
42018;SDS011;27703;51.980;5.848;2023-11-22T05:46:34;10.48;;;7.00;;
42018;SDS011;27703;51.980;5.848;2023-11-22T05:49:00;12.68;;;6.20;;
42018;SDS011;27703;51.980;5.848;2023-11-22T05:51:25;15.90;;;6.95;;
42018;SDS011;27703;51.980;5.848;2023-11-22T05:53:51;9.50;;;6.43;;
42018;SDS011;27703;51.980;5.848;2023-11-22T05:56:17;12.52;;;7.30;;
42018;SDS011;27703;51.980;5.848;2023-11-22T05:58:44;12.30;;;6.75;;
42018;SDS011;27703;51.980;5.848;2023-11-22T06:01:10;12.52;;;7.90;;
42018;SDS011;27703;51.980;5.848;2023-11-22T06:03:39;12.30;;;8.18;;
42018;SDS011;27703;51.980;5.848;2023-11-22T06:06:05;10.32;;;6.80;;
42018;SDS011;27703;51.980;5.848;2023-11-22T06:08:31;11.65;;;7.55;;
42018;SDS011;27703;51.980;5.848;2023-11-22T06:10:57;12.65;;;7.85;;
42018;SDS011;27703;51.980;5.848;2023-11-22T06:13:24;13.43;;;7.68;;
42018;SDS011;27703;51.980;5.848;2023-11-22T06:15:50;13.20;;;8.70;;
42018;SDS011;27703;51.980;5.848;2023-11-22T06:18:16;13.68;;;7.68;;
42018;SDS011;27703;51.980;5.848;2023-11-22T06:20:42;11.02;;;8.38;;
42018;SDS011;27703;51.980;5.848;2023-11-22T06:23:08;16.58;;;9.07;;
42018;SDS011;27703;51.980;5.848;2023-11-22T06:25:33;13.45;;;7.22;;
42018;SDS011;27703;51.980;5.848;2023-11-22T06:28:01;10.63;;;7.20;;
42018;SDS011;27703;51.980;5.848;2023-11-22T06:30:27;14.27;;;7.80;;
42018;SDS011;27703;51.980;5.848;2023-11-22T06:32:52;13.77;;;8.23;;
42018;SDS011;27703;51.980;5.848;2023-11-22T06:35:18;14.77;;;8.10;;
42018;SDS011;27703;51.980;5.848;2023-11-22T06:37:44;11.68;;;7.70;;
42018;SDS011;27703;51.980;5.848;2023-11-22T06:40:10;13.70;;;7.10;;
42018;SDS011;27703;51.980;5.848;2023-11-22T06:42:42;11.85;;;7.93;;
42018;SDS011;27703;51.980;5.848;2023-11-22T06:45:08;13.50;;;8.63;;
42018;SDS011;27703;51.980;5.848;2023-11-22T06:47:38;13.23;;;8.25;;
42018;SDS011;27703;51.980;5.848;2023-11-22T06:50:04;12.35;;;8.57;;
42018;SDS011;27703;51.980;5.848;2023-11-22T06:52:34;14.63;;;9.35;;
42018;SDS011;27703;51.980;5.848;2023-11-22T06:55:06;14.80;;;9.32;;
42018;SDS011;27703;51.980;5.848;2023-11-22T06:57:33;18.88;;;9.48;;
42018;SDS011;27703;51.980;5.848;2023-11-22T07:00:00;15.95;;;9.20;;
42018;SDS011;27703;51.980;5.848;2023-11-22T07:02:29;13.68;;;8.45;;
42018;SDS011;27703;51.980;5.848;2023-11-22T07:04:58;14.88;;;9.10;;
42018;SDS011;27703;51.980;5.848;2023-11-22T07:07:28;11.63;;;7.70;;
42018;SDS011;27703;51.980;5.848;2023-11-22T07:09:54;13.52;;;9.15;;
42018;SDS011;27703;51.980;5.848;2023-11-22T07:12:23;13.57;;;8.38;;
42018;SDS011;27703;51.980;5.848;2023-11-22T07:14:49;13.20;;;9.07;;
42018;SDS011;27703;51.980;5.848;2023-11-22T07:17:15;12.45;;;7.47;;
42018;SDS011;27703;51.980;5.848;2023-11-22T07:19:42;14.60;;;9.65;;
42018;SDS011;27703;51.980;5.848;2023-11-22T07:22:12;16.08;;;9.40;;
42018;SDS011;27703;51.980;5.848;2023-11-22T07:24:44;16.33;;;9.32;;
42018;SDS011;27703;51.980;5.848;2023-11-22T07:27:17;18.50;;;10.48;;
42018;SDS011;27703;51.980;5.848;2023-11-22T07:29:43;16.85;;;9.15;;
42018;SDS011;27703;51.980;5.848;2023-11-22T07:32:10;19.30;;;10.82;;
42018;SDS011;27703;51.980;5.848;2023-11-22T07:34:36;13.85;;;9.38;;
42018;SDS011;27703;51.980;5.848;2023-11-22T07:37:04;16.05;;;10.00;;
42018;SDS011;27703;51.980;5.848;2023-11-22T07:39:32;18.73;;;8.55;;
42018;SDS011;27703;51.980;5.848;2023-11-22T07:41:58;14.98;;;9.38;;
42018;SDS011;27703;51.980;5.848;2023-11-22T07:44:24;15.77;;;8.70;;
42018;SDS011;27703;51.980;5.848;2023-11-22T07:46:50;18.88;;;9.63;;
42018;SDS011;27703;51.980;5.848;2023-11-22T07:49:19;15.23;;;9.60;;
42018;SDS011;27703;51.980;5.848;2023-11-22T07:51:46;15.63;;;10.00;;
42018;SDS011;27703;51.980;5.848;2023-11-22T07:54:12;18.75;;;10.45;;
42018;SDS011;27703;51.980;5.848;2023-11-22T07:56:40;17.02;;;10.40;;
42018;SDS011;27703;51.980;5.848;2023-11-22T07:59:11;16.15;;;9.82;;
42018;SDS011;27703;51.980;5.848;2023-11-22T08:01:37;13.05;;;8.73;;
42018;SDS011;27703;51.980;5.848;2023-11-22T08:04:03;12.73;;;8.45;;
42018;SDS011;27703;51.980;5.848;2023-11-22T08:06:30;11.27;;;8.15;;
42018;SDS011;27703;51.980;5.848;2023-11-22T08:08:59;13.27;;;8.98;;
42018;SDS011;27703;51.980;5.848;2023-11-22T08:11:26;11.43;;;7.95;;
42018;SDS011;27703;51.980;5.848;2023-11-22T08:13:52;12.38;;;7.47;;
42018;SDS011;27703;51.980;5.848;2023-11-22T08:16:20;15.27;;;8.90;;
42018;SDS011;27703;51.980;5.848;2023-11-22T08:18:45;16.88;;;9.80;;
42018;SDS011;27703;51.980;5.848;2023-11-22T08:21:11;14.68;;;9.02;;
42018;SDS011;27703;51.980;5.848;2023-11-22T08:23:37;15.25;;;9.35;;
42018;SDS011;27703;51.980;5.848;2023-11-22T08:26:02;14.45;;;8.93;;
42018;SDS011;27703;51.980;5.848;2023-11-22T08:28:29;15.15;;;9.88;;
42018;SDS011;27703;51.980;5.848;2023-11-22T08:30:55;14.32;;;9.57;;
42018;SDS011;27703;51.980;5.848;2023-11-22T08:33:21;12.70;;;8.50;;
42018;SDS011;27703;51.980;5.848;2023-11-22T08:35:47;15.48;;;10.05;;
42018;SDS011;27703;51.980;5.848;2023-11-22T08:38:16;12.10;;;8.45;;
42018;SDS011;27703;51.980;5.848;2023-11-22T08:40:42;13.77;;;8.73;;
42018;SDS011;27703;51.980;5.848;2023-11-22T08:43:08;10.88;;;7.28;;
42018;SDS011;27703;51.980;5.848;2023-11-22T08:45:33;12.10;;;8.40;;
42018;SDS011;27703;51.980;5.848;2023-11-22T08:47:59;14.77;;;8.10;;
42018;SDS011;27703;51.980;5.848;2023-11-22T08:50:25;16.73;;;9.25;;
42018;SDS011;27703;51.980;5.848;2023-11-22T08:52:51;14.80;;;9.88;;
42018;SDS011;27703;51.980;5.848;2023-11-22T08:55:18;15.40;;;10.40;;
42018;SDS011;27703;51.980;5.848;2023-11-22T08:57:47;20.55;;;13.20;;
42018;SDS011;27703;51.980;5.848;2023-11-22T09:00:16;18.58;;;12.27;;
42018;SDS011;27703;51.980;5.848;2023-11-22T09:02:47;17.35;;;11.20;;
42018;SDS011;27703;51.980;5.848;2023-11-22T09:05:13;19.90;;;12.52;;
42018;SDS011;27703;51.980;5.848;2023-11-22T09:07:41;18.08;;;12.82;;
42018;SDS011;27703;51.980;5.848;2023-11-22T09:10:09;19.42;;;14.77;;
42018;SDS011;27703;51.980;5.848;2023-11-22T09:12:39;18.85;;;13.40;;
42018;SDS011;27703;51.980;5.848;2023-11-22T09:15:09;16.55;;;11.43;;
42018;SDS011;27703;51.980;5.848;2023-11-22T09:17:38;20.33;;;13.95;;
42018;SDS011;27703;51.980;5.848;2023-11-22T09:20:11;24.42;;;16.90;;
42018;SDS011;27703;51.980;5.848;2023-11-22T09:22:49;17.63;;;13.40;;
42018;SDS011;27703;51.980;5.848;2023-11-22T09:25:17;17.65;;;12.25;;
42018;SDS011;27703;51.980;5.848;2023-11-22T09:27:46;20.95;;;13.88;;
42018;SDS011;27703;51.980;5.848;2023-11-22T09:30:16;15.13;;;11.98;;
42018;SDS011;27703;51.980;5.848;2023-11-22T09:33:04;22.00;;;14.43;;
42018;SDS011;27703;51.980;5.848;2023-11-22T09:35:39;18.90;;;13.68;;
42018;SDS011;27703;51.980;5.848;2023-11-22T09:38:06;16.27;;;11.65;;
42018;SDS011;27703;51.980;5.848;2023-11-22T09:40:36;14.25;;;10.77;;
42018;SDS011;27703;51.980;5.848;2023-11-22T09:43:12;22.63;;;13.18;;
42018;SDS011;27703;51.980;5.848;2023-11-22T09:45:43;18.38;;;11.63;;
42018;SDS011;27703;51.980;5.848;2023-11-22T09:53:29;19.23;;;12.50;;
42018;SDS011;27703;51.980;5.848;2023-11-22T09:56:02;18.83;;;13.43;;
42018;SDS011;27703;51.980;5.848;2023-11-22T09:58:29;18.52;;;13.82;;
42018;SDS011;27703;51.980;5.848;2023-11-22T10:00:57;17.52;;;11.98;;
42018;SDS011;27703;51.980;5.848;2023-11-22T10:03:26;18.67;;;12.60;;
42018;SDS011;27703;51.980;5.848;2023-11-22T10:05:56;16.60;;;11.82;;
42018;SDS011;27703;51.980;5.848;2023-11-22T10:08:24;14.80;;;9.65;;
42018;SDS011;27703;51.980;5.848;2023-11-22T10:10:52;19.67;;;12.73;;
42018;SDS011;27703;51.980;5.848;2023-11-22T10:13:19;17.25;;;11.80;;
42018;SDS011;27703;51.980;5.848;2023-11-22T10:15:45;19.00;;;12.32;;
42018;SDS011;27703;51.980;5.848;2023-11-22T10:18:12;15.60;;;10.13;;
42018;SDS011;27703;51.980;5.848;2023-11-22T10:20:39;21.88;;;14.25;;
42018;SDS011;27703;51.980;5.848;2023-11-22T10:23:09;18.48;;;12.65;;
42018;SDS011;27703;51.980;5.848;2023-11-22T10:25:57;20.27;;;11.30;;
42018;SDS011;27703;51.980;5.848;2023-11-22T10:28:22;23.73;;;13.93;;
42018;SDS011;27703;51.980;5.848;2023-11-22T10:30:51;19.08;;;12.82;;
42018;SDS011;27703;51.980;5.848;2023-11-22T10:33:17;18.42;;;11.75;;
42018;SDS011;27703;51.980;5.848;2023-11-22T10:35:48;15.75;;;10.40;;
42018;SDS011;27703;51.980;5.848;2023-11-22T10:38:16;19.75;;;11.40;;
42018;SDS011;27703;51.980;5.848;2023-11-22T10:40:42;17.10;;;10.57;;
42018;SDS011;27703;51.980;5.848;2023-11-22T10:43:12;18.45;;;9.63;;
42018;SDS011;27703;51.980;5.848;2023-11-22T10:45:42;16.83;;;11.23;;
42018;SDS011;27703;51.980;5.848;2023-11-22T10:48:15;22.20;;;14.02;;
42018;SDS011;27703;51.980;5.848;2023-11-22T10:50:41;19.25;;;12.35;;
42018;SDS011;27703;51.980;5.848;2023-11-22T10:53:08;18.13;;;11.70;;
42018;SDS011;27703;51.980;5.848;2023-11-22T10:55:38;19.00;;;12.15;;
42018;SDS011;27703;51.980;5.848;2023-11-22T10:58:09;18.05;;;11.25;;
42018;SDS011;27703;51.980;5.848;2023-11-22T11:00:36;16.55;;;11.07;;
42018;SDS011;27703;51.980;5.848;2023-11-22T11:03:19;17.67;;;11.40;;
42018;SDS011;27703;51.980;5.848;2023-11-22T11:05:57;19.40;;;12.32;;
42018;SDS011;27703;51.980;5.848;2023-11-22T11:08:26;16.60;;;10.77;;
42018;SDS011;27703;51.980;5.848;2023-11-22T11:10:53;20.25;;;12.32;;
42018;SDS011;27703;51.980;5.848;2023-11-22T11:13:23;18.05;;;12.05;;
42018;SDS011;27703;51.980;5.848;2023-11-22T11:15:49;18.95;;;11.98;;
42018;SDS011;27703;51.980;5.848;2023-11-22T11:18:18;15.95;;;9.93;;
42018;SDS011;27703;51.980;5.848;2023-11-22T11:20:45;23.88;;;10.65;;
42018;SDS011;27703;51.980;5.848;2023-11-22T11:23:15;17.90;;;12.00;;
42018;SDS011;27703;51.980;5.848;2023-11-22T11:25:58;14.88;;;10.27;;
42018;SDS011;27703;51.980;5.848;2023-11-22T11:28:42;14.50;;;9.68;;
42018;SDS011;27703;51.980;5.848;2023-11-22T11:31:09;16.10;;;11.20;;
42018;SDS011;27703;51.980;5.848;2023-11-22T11:33:37;15.88;;;9.85;;
42018;SDS011;27703;51.980;5.848;2023-11-22T11:36:25;16.20;;;10.45;;
42018;SDS011;27703;51.980;5.848;2023-11-22T11:38:57;15.57;;;10.05;;
42018;SDS011;27703;51.980;5.848;2023-11-22T11:41:26;17.45;;;11.35;;
42018;SDS011;27703;51.980;5.848;2023-11-22T11:44:02;15.48;;;10.63;;
42018;SDS011;27703;51.980;5.848;2023-11-22T11:46:29;15.63;;;10.90;;
42018;SDS011;27703;51.980;5.848;2023-11-22T11:48:56;16.88;;;10.68;;
42018;SDS011;27703;51.980;5.848;2023-11-22T11:51:25;23.27;;;11.38;;
42018;SDS011;27703;51.980;5.848;2023-11-22T11:53:52;16.90;;;11.10;;
42018;SDS011;27703;51.980;5.848;2023-11-22T11:56:19;16.92;;;11.32;;
42018;SDS011;27703;51.980;5.848;2023-11-22T11:58:45;19.17;;;12.55;;
42018;SDS011;27703;51.980;5.848;2023-11-22T12:01:12;18.70;;;11.73;;
42018;SDS011;27703;51.980;5.848;2023-11-22T12:03:39;20.27;;;12.98;;
42018;SDS011;27703;51.980;5.848;2023-11-22T12:06:05;18.63;;;12.27;;
42018;SDS011;27703;51.980;5.848;2023-11-22T12:08:31;20.52;;;13.55;;
42018;SDS011;27703;51.980;5.848;2023-11-22T12:11:01;19.85;;;11.98;;
42018;SDS011;27703;51.980;5.848;2023-11-22T12:13:31;20.60;;;12.80;;
42018;SDS011;27703;51.980;5.848;2023-11-22T12:15:57;21.98;;;13.63;;
42018;SDS011;27703;51.980;5.848;2023-11-22T12:18:23;24.13;;;14.73;;
42018;SDS011;27703;51.980;5.848;2023-11-22T12:20:55;20.20;;;13.13;;
42018;SDS011;27703;51.980;5.848;2023-11-22T12:23:22;24.33;;;15.25;;
42018;SDS011;27703;51.980;5.848;2023-11-22T12:25:52;22.38;;;14.02;;
42018;SDS011;27703;51.980;5.848;2023-11-22T12:28:21;25.40;;;14.60;;
42018;SDS011;27703;51.980;5.848;2023-11-22T12:30:47;24.25;;;15.50;;
42018;SDS011;27703;51.980;5.848;2023-11-22T12:33:13;24.10;;;14.82;;
42018;SDS011;27703;51.980;5.848;2023-11-22T12:35:43;26.17;;;14.15;;
42018;SDS011;27703;51.980;5.848;2023-11-22T12:38:09;25.65;;;14.95;;
42018;SDS011;27703;51.980;5.848;2023-11-22T12:40:35;22.73;;;14.25;;
42018;SDS011;27703;51.980;5.848;2023-11-22T12:43:01;21.45;;;13.18;;
42018;SDS011;27703;51.980;5.848;2023-11-22T12:45:28;18.98;;;11.82;;
42018;SDS011;27703;51.980;5.848;2023-11-22T12:47:55;26.80;;;14.82;;
42018;SDS011;27703;51.980;5.848;2023-11-22T12:50:36;23.58;;;13.60;;
42018;SDS011;27703;51.980;5.848;2023-11-22T12:53:13;23.75;;;13.98;;
42018;SDS011;27703;51.980;5.848;2023-11-22T12:55:43;25.85;;;14.07;;
42018;SDS011;27703;51.980;5.848;2023-11-22T12:58:13;21.55;;;13.27;;
42018;SDS011;27703;51.980;5.848;2023-11-22T13:00:40;24.00;;;13.88;;
42018;SDS011;27703;51.980;5.848;2023-11-22T13:03:06;23.50;;;13.05;;
42018;SDS011;27703;51.980;5.848;2023-11-22T13:05:32;21.88;;;12.98;;
42018;SDS011;27703;51.980;5.848;2023-11-22T13:07:58;22.10;;;12.77;;
42018;SDS011;27703;51.980;5.848;2023-11-22T13:10:24;21.55;;;13.25;;
42018;SDS011;27703;51.980;5.848;2023-11-22T13:12:51;25.27;;;14.00;;
42018;SDS011;27703;51.980;5.848;2023-11-22T13:15:19;23.08;;;13.95;;
42018;SDS011;27703;51.980;5.848;2023-11-22T13:17:46;21.77;;;14.00;;
42018;SDS011;27703;51.980;5.848;2023-11-22T13:20:11;22.85;;;14.02;;
42018;SDS011;27703;51.980;5.848;2023-11-22T13:22:43;25.40;;;15.75;;
42018;SDS011;27703;51.980;5.848;2023-11-22T13:25:10;23.75;;;14.25;;
42018;SDS011;27703;51.980;5.848;2023-11-22T13:27:38;23.45;;;14.13;;
42018;SDS011;27703;51.980;5.848;2023-11-22T13:30:05;22.92;;;13.43;;
42018;SDS011;27703;51.980;5.848;2023-11-22T13:32:32;26.23;;;14.80;;
42018;SDS011;27703;51.980;5.848;2023-11-22T13:34:58;28.35;;;15.82;;
42018;SDS011;27703;51.980;5.848;2023-11-22T13:37:24;28.15;;;15.93;;
42018;SDS011;27703;51.980;5.848;2023-11-22T13:39:49;22.10;;;14.32;;
42018;SDS011;27703;51.980;5.848;2023-11-22T13:42:15;27.70;;;15.52;;
42018;SDS011;27703;51.980;5.848;2023-11-22T13:44:41;27.30;;;15.40;;
42018;SDS011;27703;51.980;5.848;2023-11-22T13:47:09;27.92;;;16.02;;
42018;SDS011;27703;51.980;5.848;2023-11-22T13:49:35;30.33;;;15.80;;
42018;SDS011;27703;51.980;5.848;2023-11-22T13:52:02;30.45;;;17.02;;
42018;SDS011;27703;51.980;5.848;2023-11-22T13:54:28;32.17;;;16.90;;
42018;SDS011;27703;51.980;5.848;2023-11-22T13:56:53;31.30;;;16.95;;
42018;SDS011;27703;51.980;5.848;2023-11-22T13:59:19;30.45;;;14.73;;
42018;SDS011;27703;51.980;5.848;2023-11-22T14:01:44;31.38;;;15.85;;
42018;SDS011;27703;51.980;5.848;2023-11-22T14:04:10;31.20;;;16.15;;
42018;SDS011;27703;51.980;5.848;2023-11-22T14:06:36;33.92;;;16.92;;
42018;SDS011;27703;51.980;5.848;2023-11-22T14:09:02;36.72;;;17.25;;
42018;SDS011;27703;51.980;5.848;2023-11-22T14:11:28;37.08;;;19.55;;
42018;SDS011;27703;51.980;5.848;2023-11-22T14:13:54;34.33;;;18.10;;
42018;SDS011;27703;51.980;5.848;2023-11-22T14:16:20;37.92;;;19.90;;
42018;SDS011;27703;51.980;5.848;2023-11-22T14:18:45;40.60;;;20.98;;
42018;SDS011;27703;51.980;5.848;2023-11-22T14:21:11;36.72;;;18.90;;
42018;SDS011;27703;51.980;5.848;2023-11-22T14:23:37;41.50;;;20.38;;
42018;SDS011;27703;51.980;5.848;2023-11-22T14:26:02;38.38;;;20.20;;
42018;SDS011;27703;51.980;5.848;2023-11-22T14:28:28;48.30;;;21.88;;
42018;SDS011;27703;51.980;5.848;2023-11-22T14:30:55;43.33;;;21.48;;
42018;SDS011;27703;51.980;5.848;2023-11-22T14:33:20;41.28;;;21.65;;
42018;SDS011;27703;51.980;5.848;2023-11-22T14:35:46;45.67;;;22.75;;